Time;durP1;ratioP1;P1;durP2;ratioP2;P2;SDS_P1;SDS_P2;PMS_P1;PMS_P2;Temp;Humidity;BMP_temperature;BMP_pressure;BME280_temperature;BME280_humidity;BME280_pressure;Samples;Min_cycle;Max_cycle;Signal;HPM_P1;HPM_P2
2022/06/21 00:02:02;;;;;;;12.67;11.40;;;11.80;99.90;;;;;;5031678;28;20489;-76
2022/06/21 00:04:30;;;;;;;19.13;12.17;;;11.80;99.90;;;;;;5030737;28;20453;-76
2022/06/21 00:06:58;;;;;;;16.73;11.73;;;11.70;99.90;;;;;;5031352;28;20449;-76
2022/06/21 00:09:25;;;;;;;17.37;10.90;;;11.70;99.90;;;;;;5031369;28;20869;-76
2022/06/21 00:11:51;;;;;;;13.10;11.60;;;11.70;99.90;;;;;;5031528;28;20484;-76
2022/06/21 00:14:18;;;;;;;12.00;10.23;;;11.70;99.90;;;;;;5031610;28;20445;-76
2022/06/21 00:16:45;;;;;;;17.83;11.47;;;11.70;99.90;;;;;;5028231;28;20529;-76
2022/06/21 00:19:19;;;;;;;23.23;11.43;;;11.70;99.90;;;;;;5031183;28;20993;-76
2022/06/21 00:21:47;;;;;;;15.77;10.73;;;11.70;99.90;;;;;;5030941;28;20496;-76
2022/06/21 00:24:16;;;;;;;16.50;11.07;;;11.70;99.90;;;;;;5031421;28;20453;-76
2022/06/21 00:26:43;;;;;;;19.27;11.53;;;11.70;99.90;;;;;;5029873;28;20468;-76
2022/06/21 00:29:10;;;;;;;11.90;10.70;;;11.70;99.90;;;;;;5031409;28;20454;-76
2022/06/21 00:31:38;;;;;;;13.63;11.37;;;11.80;99.90;;;;;;5026599;28;20469;-76
2022/06/21 00:34:08;;;;;;;16.97;11.00;;;11.80;99.90;;;;;;5030362;28;20511;-76
2022/06/21 00:36:36;;;;;;;13.40;10.80;;;11.80;99.90;;;;;;5030949;28;20511;-76
2022/06/21 00:39:06;;;;;;;11.37;10.17;;;11.80;99.90;;;;;;5030333;28;20481;-76
2022/06/21 00:41:38;;;;;;;12.27;10.10;;;11.80;99.90;;;;;;5027857;28;20469;-76
2022/06/21 00:44:08;;;;;;;14.73;9.93;;;11.80;99.90;;;;;;5030658;28;20460;-76
2022/06/21 00:46:39;;;;;;;11.07;9.53;;;11.70;99.90;;;;;;5030787;28;20449;-76
2022/06/21 00:49:14;;;;;;;9.97;9.10;;;11.70;99.90;;;;;;5031165;28;20539;-76
2022/06/21 00:51:42;;;;;;;10.47;8.80;;;11.60;99.90;;;;;;5031106;28;20503;-76
2022/06/21 00:54:16;;;;;;;18.60;8.77;;;11.60;99.90;;;;;;5028147;28;20941;-76
2022/06/21 00:56:51;;;;;;;13.53;8.87;;;11.60;99.90;;;;;;5029864;28;20519;-76
2022/06/21 00:59:25;;;;;;;12.60;8.20;;;11.60;99.90;;;;;;5029375;28;20483;-76
2022/06/21 01:01:56;;;;;;;10.73;8.97;;;11.50;99.90;;;;;;5027294;28;20473;-76
2022/06/21 01:04:29;;;;;;;11.70;8.70;;;11.50;99.90;;;;;;5030346;28;20454;-76
2022/06/21 01:07:00;;;;;;;11.47;8.37;;;11.50;99.90;;;;;;5029908;28;20503;-76
2022/06/21 01:09:37;;;;;;;13.87;9.07;;;11.40;99.90;;;;;;5029216;28;20451;-76
2022/06/21 01:12:10;;;;;;;9.40;8.50;;;11.40;99.90;;;;;;5028608;28;20484;-76
2022/06/21 01:14:40;;;;;;;9.97;8.43;;;11.30;99.90;;;;;;5030349;28;20867;-76
2022/06/21 01:17:09;;;;;;;9.53;8.63;;;11.30;99.90;;;;;;5027940;28;20495;-75
2022/06/21 01:19:40;;;;;;;10.73;9.00;;;11.30;99.90;;;;;;5028598;28;20485;-76
2022/06/21 01:22:16;;;;;;;16.30;8.23;;;11.30;99.90;;;;;;5030664;28;20491;-76
2022/06/21 01:24:52;;;;;;;10.60;8.73;;;11.20;99.90;;;;;;5026273;28;21222;-77
2022/06/21 01:27:19;;;;;;;15.23;8.70;;;11.10;99.90;;;;;;5031213;28;20503;-77
2022/06/21 01:29:47;;;;;;;16.07;9.10;;;11.10;99.90;;;;;;5029287;28;20488;-76
2022/06/21 01:32:14;;;;;;;10.23;8.87;;;11.00;99.90;;;;;;5026491;28;20841;-77
2022/06/21 01:34:40;;;;;;;15.97;8.37;;;11.00;99.90;;;;;;5030600;28;20461;-77
2022/06/21 01:37:11;;;;;;;23.20;8.57;;;11.00;99.90;;;;;;5029282;28;20479;-76
2022/06/21 01:39:43;;;;;;;9.20;8.33;;;10.90;99.90;;;;;;5028460;28;20504;-76
2022/06/21 01:42:15;;;;;;;11.53;8.63;;;10.90;99.90;;;;;;5030008;28;20882;-76
2022/06/21 01:44:47;;;;;;;15.20;9.33;;;10.80;99.90;;;;;;5028499;28;20511;-76
2022/06/21 01:47:18;;;;;;;11.57;7.50;;;10.70;99.90;;;;;;5027695;28;20536;-76
2022/06/21 01:49:50;;;;;;;9.80;8.80;;;10.70;99.90;;;;;;5030272;28;20449;-76
2022/06/21 01:52:21;;;;;;;11.90;7.87;;;10.70;99.90;;;;;;5030352;28;20508;-77
2022/06/21 01:54:54;;;;;;;9.83;7.50;;;10.60;99.90;;;;;;5028242;28;21027;-77
2022/06/21 01:57:21;;;;;;;12.40;8.20;;;10.60;99.90;;;;;;5029946;28;20480;-77
2022/06/21 01:59:52;;;;;;;10.10;8.27;;;10.60;99.90;;;;;;5025923;28;20493;-76
2022/06/21 02:02:22;;;;;;;12.60;8.60;;;10.50;99.90;;;;;;5029740;28;20515;-76
2022/06/21 02:04:55;;;;;;;12.33;9.60;;;10.50;99.90;;;;;;5028244;28;20464;-77
2022/06/21 02:07:26;;;;;;;15.40;9.20;;;10.40;99.90;;;;;;5022641;28;20929;-77
2022/06/21 02:09:59;;;;;;;14.00;8.83;;;10.20;99.90;;;;;;5029736;28;20495;-77
2022/06/21 02:12:28;;;;;;;16.03;9.60;;;10.20;99.90;;;;;;5024544;28;20950;-76
2022/06/21 02:14:58;;;;;;;10.93;9.03;;;10.20;99.90;;;;;;5026700;28;20446;-76
2022/06/21 02:17:28;;;;;;;14.77;9.73;;;10.20;99.90;;;;;;5024112;28;20458;-77
2022/06/21 02:20:03;;;;;;;14.47;8.73;;;10.20;99.90;;;;;;5019961;28;20482;-76
2022/06/21 02:22:32;;;;;;;14.03;9.23;;;10.30;99.90;;;;;;5028898;28;20453;-76
2022/06/21 02:24:59;;;;;;;19.77;8.83;;;10.30;99.90;;;;;;5020318;28;20500;-76
2022/06/21 02:27:30;;;;;;;11.70;9.13;;;10.30;99.90;;;;;;5027034;28;20449;-77
2022/06/21 02:30:01;;;;;;;10.77;9.37;;;10.20;99.90;;;;;;5030926;28;21003;-76
2022/06/21 02:32:31;;;;;;;16.37;9.27;;;10.20;99.90;;;;;;5029927;28;20476;-76
2022/06/21 02:35:03;;;;;;;12.87;8.60;;;10.10;99.90;;;;;;5033183;28;20457;-76
2022/06/21 02:37:31;;;;;;;17.67;7.70;;;9.90;99.90;;;;;;5032666;28;20469;-77
2022/06/21 02:40:00;;;;;;;18.87;8.93;;;9.80;99.90;;;;;;5027734;28;20559;-76
2022/06/21 02:42:31;;;;;;;9.37;8.37;;;9.70;99.90;;;;;;5024716;28;20457;-76
2022/06/21 02:45:02;;;;;;;10.13;7.90;;;9.70;99.90;;;;;;5030276;28;20503;-77
2022/06/21 02:47:33;;;;;;;12.30;8.83;;;9.70;99.90;;;;;;5033145;28;20507;-77
2022/06/21 02:50:04;;;;;;;11.50;7.80;;;9.70;99.90;;;;;;5025928;28;20491;-77
2022/06/21 02:52:34;;;;;;;9.90;8.00;;;9.70;99.90;;;;;;5031907;28;20537;-76
2022/06/21 02:55:09;;;;;;;25.43;9.30;;;9.70;99.90;;;;;;5026226;28;20456;-76
2022/06/21 02:57:41;;;;;;;9.80;8.27;;;9.70;99.90;;;;;;5032843;28;20518;-76
2022/06/21 03:00:18;;;;;;;17.33;10.00;;;9.70;99.90;;;;;;5028215;28;20544;-76
2022/06/21 03:02:46;;;;;;;13.43;9.20;;;9.80;99.90;;;;;;5026343;28;20456;-76
2022/06/21 03:05:16;;;;;;;10.73;9.33;;;9.80;99.90;;;;;;5029470;28;20445;-76
2022/06/21 03:07:47;;;;;;;13.50;9.80;;;9.70;99.90;;;;;;5030897;28;20898;-76
2022/06/21 03:10:18;;;;;;;12.63;9.40;;;9.70;99.90;;;;;;5030058;28;20527;-76
2022/06/21 03:12:48;;;;;;;14.47;10.07;;;9.60;99.90;;;;;;5031129;28;20514;-76
2022/06/21 03:15:16;;;;;;;18.30;10.13;;;9.60;99.90;;;;;;5024062;28;20457;-77
2022/06/21 03:17:47;;;;;;;13.30;10.50;;;9.60;99.90;;;;;;5030308;28;20938;-76
2022/06/21 03:20:18;;;;;;;24.13;10.47;;;9.50;99.90;;;;;;5026607;28;20916;-77
2022/06/21 03:22:46;;;;;;;10.50;9.37;;;9.50;99.90;;;;;;5031543;28;20858;-76
2022/06/21 03:25:21;;;;;;;10.00;8.53;;;9.30;99.90;;;;;;5026455;28;20500;-76
2022/06/21 03:27:51;;;;;;;10.60;9.50;;;9.30;99.90;;;;;;5027409;28;20499;-76
2022/06/21 03:30:22;;;;;;;10.20;9.10;;;9.20;99.90;;;;;;5027774;28;21205;-76
2022/06/21 03:32:50;;;;;;;12.37;8.87;;;9.20;99.90;;;;;;5027328;28;20507;-76
2022/06/21 03:35:17;;;;;;;30.53;9.17;;;9.10;99.90;;;;;;5025767;28;21008;-76
2022/06/21 03:37:45;;;;;;;32.07;11.00;;;9.10;99.90;;;;;;5026750;28;20457;-76
2022/06/21 03:43:09;;;;;;;17.03;10.43;;;8.90;99.90;;;;;;5031517;28;20463;-76
2022/06/21 03:45:40;;;;;;;12.40;9.73;;;8.90;99.90;;;;;;5031182;28;20445;-76
2022/06/21 03:48:14;;;;;;;16.77;10.03;;;8.90;99.90;;;;;;5029931;28;20457;-77
2022/06/21 03:50:46;;;;;;;20.23;9.80;;;9.00;99.90;;;;;;5029134;28;20470;-77
2022/06/21 03:53:16;;;;;;;18.80;10.63;;;9.10;99.90;;;;;;5030497;28;20458;-77
2022/06/21 03:55:48;;;;;;;15.00;11.53;;;9.10;99.90;;;;;;5030139;28;20449;-76
2022/06/21 03:58:22;;;;;;;12.23;10.33;;;9.20;99.90;;;;;;5030993;28;20940;-76
2022/06/21 04:00:56;;;;;;;13.30;10.10;;;9.40;99.90;;;;;;5030897;28;20477;-76
2022/06/21 04:03:27;;;;;;;16.00;10.67;;;9.50;99.90;;;;;;5028635;28;20540;-76
2022/06/21 04:05:59;;;;;;;11.97;10.63;;;9.60;99.90;;;;;;5030326;28;20511;-76
2022/06/21 04:08:33;;;;;;;13.30;10.40;;;9.70;99.90;;;;;;5029397;28;20958;-76
2022/06/21 04:11:06;;;;;;;14.43;10.87;;;9.70;99.90;;;;;;5031146;28;20945;-77
2022/06/21 04:13:39;;;;;;;12.67;10.07;;;9.80;99.90;;;;;;5030501;28;20471;-76
2022/06/21 04:16:14;;;;;;;12.37;9.80;;;9.90;99.90;;;;;;5030739;28;20479;-77
2022/06/21 04:18:49;;;;;;;13.63;10.07;;;9.90;99.90;;;;;;5029876;28;20835;-76
2022/06/21 04:21:22;;;;;;;13.17;9.77;;;10.00;99.90;;;;;;5027760;28;21009;-77
2022/06/21 04:23:53;;;;;;;11.40;9.70;;;10.00;99.90;;;;;;5028281;28;20461;-77
2022/06/21 04:26:26;;;;;;;13.73;9.93;;;10.10;99.90;;;;;;5031126;28;20452;-77
2022/06/21 04:28:59;;;;;;;10.43;9.30;;;10.10;99.90;;;;;;5031419;28;21020;-77
2022/06/21 04:31:32;;;;;;;16.50;9.70;;;10.20;99.90;;;;;;5030880;28;20492;-77
2022/06/21 04:34:04;;;;;;;10.27;9.17;;;10.30;99.90;;;;;;5030872;28;20462;-77
2022/06/21 04:36:35;;;;;;;10.40;9.40;;;10.30;99.90;;;;;;5030931;28;20492;-76
2022/06/21 04:39:05;;;;;;;14.67;11.20;;;10.40;99.90;;;;;;5028102;28;20485;-77
2022/06/21 04:41:38;;;;;;;11.90;10.03;;;10.40;99.90;;;;;;5031692;28;20539;-77
2022/06/21 04:44:10;;;;;;;12.40;10.47;;;10.40;99.90;;;;;;5029044;28;20885;-77
2022/06/21 04:46:42;;;;;;;16.83;10.30;;;10.50;99.90;;;;;;5026218;28;20933;-77
2022/06/21 04:49:14;;;;;;;13.27;11.33;;;10.50;99.90;;;;;;5028317;28;20505;-77
2022/06/21 04:51:47;;;;;;;12.67;10.50;;;10.50;99.90;;;;;;5027126;28;20481;-77
2022/06/21 04:54:21;;;;;;;13.17;11.23;;;10.60;99.90;;;;;;5025721;28;20546;-77
2022/06/21 04:56:55;;;;;;;13.93;11.00;;;10.70;99.90;;;;;;5026685;28;20457;-77
2022/06/21 04:59:27;;;;;;;11.57;9.87;;;10.80;99.90;;;;;;5020577;28;20492;-76
2022/06/21 05:01:56;;;;;;;19.80;10.47;;;10.90;99.90;;;;;;5024867;28;20477;-75
2022/06/21 05:04:28;;;;;;;11.83;9.83;;;11.10;99.90;;;;;;5027850;28;20506;-76
2022/06/21 05:06:58;;;;;;;16.93;9.67;;;11.20;99.90;;;;;;5029611;28;20457;-76
2022/06/21 05:09:28;;;;;;;18.70;9.60;;;11.40;99.90;;;;;;5026845;28;20551;-75
2022/06/21 05:11:59;;;;;;;10.50;8.80;;;11.40;99.90;;;;;;5025830;28;20489;-75
2022/06/21 05:14:37;;;;;;;11.00;8.60;;;11.50;99.90;;;;;;5026354;28;20504;-76
2022/06/21 05:17:07;;;;;;;18.30;10.30;;;11.50;99.90;;;;;;5027138;28;20467;-75
2022/06/21 05:19:37;;;;;;;11.70;10.03;;;11.60;99.90;;;;;;5028962;28;20488;-75
2022/06/21 05:22:10;;;;;;;9.73;8.73;;;11.60;99.90;;;;;;5030946;28;20462;-76
2022/06/21 05:24:37;;;;;;;11.33;10.13;;;11.70;99.90;;;;;;5027843;28;20463;-77
2022/06/21 05:27:10;;;;;;;11.83;10.63;;;11.80;99.90;;;;;;5030026;28;21167;-77
2022/06/21 05:29:44;;;;;;;13.60;10.43;;;11.90;99.90;;;;;;5030458;28;20449;-77
2022/06/21 05:32:17;;;;;;;14.20;10.60;;;11.90;99.90;;;;;;5025459;28;20532;-76
2022/06/21 05:34:48;;;;;;;12.87;11.30;;;12.00;99.90;;;;;;5028771;28;20457;-78
2022/06/21 05:37:25;;;;;;;12.57;11.20;;;12.10;99.90;;;;;;5026466;28;20825;-78
2022/06/21 05:39:53;;;;;;;15.20;11.13;;;12.20;99.90;;;;;;5026530;28;20483;-75
2022/06/21 05:42:23;;;;;;;15.50;11.27;;;12.20;99.90;;;;;;5027398;28;20446;-75
2022/06/21 05:44:53;;;;;;;12.57;11.37;;;12.20;99.90;;;;;;5022758;28;20497;-75
2022/06/21 05:47:33;;;;;;;16.57;11.13;;;12.20;99.90;;;;;;5025430;28;20458;-77
2022/06/21 05:50:02;;;;;;;15.83;11.63;;;12.30;99.90;;;;;;5027047;28;20865;-75
2022/06/21 05:52:33;;;;;;;13.47;10.83;;;12.40;99.90;;;;;;5026487;28;20457;-76
2022/06/21 05:55:06;;;;;;;11.67;10.40;;;12.60;99.90;;;;;;5026715;28;20445;-76
2022/06/21 05:57:39;;;;;;;13.90;10.50;;;12.80;99.90;;;;;;5025007;28;20453;-76
2022/06/21 06:00:08;;;;;;;12.90;11.20;;;12.90;99.90;;;;;;5024382;28;20564;-77
2022/06/21 06:02:41;;;;;;;15.67;10.23;;;13.00;99.90;;;;;;5026161;28;20499;-77
2022/06/21 06:05:14;;;;;;;10.60;9.70;;;13.20;99.90;;;;;;5024953;28;20454;-80
2022/06/21 06:07:46;;;;;;;15.10;10.40;;;13.40;99.90;;;;;;5021112;28;20470;-78
2022/06/21 06:10:14;;;;;;;12.60;9.60;;;13.70;99.90;;;;;;5027912;28;21030;-78
2022/06/21 06:12:44;;;;;;;13.60;10.13;;;13.70;99.90;;;;;;5025797;28;20478;-77
2022/06/21 06:15:17;;;;;;;11.57;10.10;;;13.90;99.90;;;;;;5030626;28;20456;-78
2022/06/21 06:17:52;;;;;;;11.50;9.40;;;14.00;99.90;;;;;;5025314;28;20442;-77
2022/06/21 06:20:30;;;;;;;13.33;9.50;;;14.20;99.90;;;;;;5029672;28;21058;-77
2022/06/21 06:23:00;;;;;;;10.83;9.73;;;14.40;99.90;;;;;;5029436;28;20457;-77
2022/06/21 06:25:32;;;;;;;10.97;9.77;;;14.50;99.90;;;;;;5032387;28;20452;-78
2022/06/21 06:28:05;;;;;;;13.67;10.47;;;14.70;99.90;;;;;;5026241;28;20501;-79
2022/06/21 06:30:38;;;;;;;11.80;10.57;;;14.80;99.90;;;;;;5031140;28;20462;-79
2022/06/21 06:33:15;;;;;;;16.27;10.30;;;14.80;99.90;;;;;;5033109;28;20460;-80
2022/06/21 06:35:43;;;;;;;17.63;11.13;;;14.90;99.90;;;;;;5027710;28;20458;-79
2022/06/21 06:38:13;;;;;;;12.70;10.57;;;15.20;99.90;;;;;;5033223;28;20445;-79
2022/06/21 06:40:45;;;;;;;12.00;10.07;;;15.40;99.90;;;;;;5032506;28;20568;-80
2022/06/21 06:43:18;;;;;;;13.20;9.60;;;15.60;99.90;;;;;;5030614;28;20461;-79
2022/06/21 06:45:45;;;;;;;12.23;9.63;;;15.80;99.90;;;;;;5034006;28;20449;-80
2022/06/21 06:48:23;;;;;;;12.40;9.40;;;15.90;99.90;;;;;;5033151;28;20453;-80
2022/06/21 06:50:55;;;;;;;12.13;9.50;;;16.10;99.90;;;;;;5030745;28;21006;-79
2022/06/21 06:53:29;;;;;;;11.83;8.57;;;16.40;99.90;;;;;;5032683;28;20461;-78
2022/06/21 06:56:00;;;;;;;14.77;9.03;;;16.60;99.90;;;;;;5033737;28;20808;-78
2022/06/21 06:58:33;;;;;;;11.40;9.40;;;16.80;99.90;;;;;;5034505;28;20434;-80
2022/06/21 07:01:03;;;;;;;12.30;8.50;;;16.90;99.90;;;;;;5031552;28;20492;-77
2022/06/21 07:03:34;;;;;;;9.83;8.60;;;17.00;99.90;;;;;;5031345;28;20457;-78
2022/06/21 07:06:05;;;;;;;13.17;9.73;;;17.00;99.90;;;;;;5029979;28;20415;-78
2022/06/21 07:08:37;;;;;;;10.10;8.57;;;17.10;99.90;;;;;;5028478;28;20511;-78
2022/06/21 07:11:15;;;;;;;8.70;7.80;;;17.30;99.90;;;;;;5030059;28;20473;-77
2022/06/21 07:13:42;;;;;;;11.20;9.83;;;17.50;99.90;;;;;;5030253;28;20860;-77
2022/06/21 07:16:13;;;;;;;12.90;9.97;;;17.70;99.90;;;;;;5030975;28;20420;-80
2022/06/21 07:18:48;;;;;;;13.33;8.43;;;17.80;99.90;;;;;;5032313;28;20441;-79
2022/06/21 07:21:19;;;;;;;14.20;9.47;;;17.80;99.90;;;;;;5033959;28;20553;-78
2022/06/21 07:23:46;;;;;;;13.20;9.00;;;17.90;99.90;;;;;;5035278;28;20507;-78
2022/06/21 07:26:18;;;;;;;11.93;8.20;;;18.10;99.90;;;;;;5033771;28;20892;-79
2022/06/21 07:28:48;;;;;;;17.87;8.07;;;18.40;99.90;;;;;;5034864;28;20427;-79
2022/06/21 07:31:20;;;;;;;9.83;7.90;;;18.50;99.90;;;;;;5036032;28;20465;-78
2022/06/21 07:33:52;;;;;;;10.80;8.17;;;18.60;99.90;;;;;;5034587;28;20430;-78
2022/06/21 07:36:23;;;;;;;15.00;7.90;;;18.80;99.90;;;;;;5034256;28;20445;-79
2022/06/21 07:38:56;;;;;;;13.23;7.43;;;19.00;99.90;;;;;;5033303;28;20902;-79
2022/06/21 07:41:28;;;;;;;8.23;6.97;;;18.90;99.90;;;;;;5033457;28;20485;-78
2022/06/21 07:43:58;;;;;;;9.90;6.50;;;18.80;99.90;;;;;;5028350;28;20456;-77
2022/06/21 07:46:31;;;;;;;13.80;8.23;;;18.90;99.90;;;;;;5034411;28;20928;-77
2022/06/21 07:49:06;;;;;;;8.10;7.30;;;18.90;99.90;;;;;;5032413;28;20461;-78
2022/06/21 07:51:37;;;;;;;12.90;7.20;;;19.00;99.90;;;;;;5031670;28;21008;-78
2022/06/21 07:54:09;;;;;;;12.77;7.17;;;18.90;99.90;;;;;;5030094;28;20456;-77
2022/06/21 07:56:40;;;;;;;12.43;8.67;;;18.80;99.90;;;;;;5031559;28;20529;-77
2022/06/21 07:59:15;;;;;;;9.70;8.40;;;18.70;99.90;;;;;;5029785;28;20412;-77
2022/06/21 08:07:35;;;;;;;10.10;6.93;;;18.90;99.90;;;;;;5033385;28;20555;-77
2022/06/21 08:10:06;;;;;;;13.30;7.40;;;19.30;99.90;;;;;;5030855;28;20459;-79
2022/06/21 08:12:33;;;;;;;10.03;8.00;;;19.60;99.90;;;;;;5033943;28;20944;-80
2022/06/21 08:15:01;;;;;;;8.83;7.83;;;19.90;99.90;;;;;;5035784;28;20450;-80
2022/06/21 08:17:33;;;;;;;8.27;7.43;;;20.20;99.90;;;;;;5032055;28;20499;-78
2022/06/21 08:20:07;;;;;;;14.07;7.60;;;20.30;99.90;;;;;;5029883;28;20983;-77
2022/06/21 08:22:40;;;;;;;7.60;6.80;;;20.50;99.90;;;;;;5029983;28;20846;-78
2022/06/21 08:25:17;;;;;;;14.30;8.50;;;20.70;99.90;;;;;;5030321;28;20500;-77
2022/06/21 08:27:51;;;;;;;12.80;9.20;;;20.50;99.90;;;;;;5027467;28;20457;-77
2022/06/21 08:30:21;;;;;;;13.07;8.80;;;20.30;99.90;;;;;;5031502;28;20884;-78
2022/06/21 08:32:54;;;;;;;12.63;8.10;;;20.20;99.90;;;;;;5033573;28;20427;-79
2022/06/21 08:35:28;;;;;;;12.53;7.87;;;20.20;99.90;;;;;;5032226;28;20457;-79
2022/06/21 08:38:02;;;;;;;12.50;8.40;;;20.20;99.90;;;;;;5029914;28;20456;-81
2022/06/21 08:41:05;;;;;;;9.20;6.13;;;20.30;99.90;;;;;;5032060;28;20467;-78
2022/06/21 08:44:00;;;;;;;5.50;5.00;;;20.60;99.90;;;;;;5029048;28;21977;-78
2022/06/21 08:47:10;;;;;;;9.90;6.63;;;20.80;99.90;;;;;;5029519;28;20458;-79
2022/06/21 08:50:12;;;;;;;9.37;6.30;;;21.10;99.90;;;;;;5032268;28;20826;-79
2022/06/21 08:53:03;;;;;;;7.93;5.40;;;21.30;99.90;;;;;;5027481;28;20531;-79
2022/06/21 08:55:38;;;;;;;13.33;6.87;;;21.30;99.90;;;;;;5032867;28;21031;-78
2022/06/21 08:58:18;;;;;;;8.27;6.37;;;21.40;99.90;;;;;;5031619;28;21113;-79
2022/06/21 09:00:52;;;;;;;9.63;5.47;;;21.60;99.90;;;;;;5032004;28;20865;-79
2022/06/21 09:03:37;;;;;;;7.10;5.07;;;21.80;99.90;;;;;;5032094;28;21350;-80
2022/06/21 09:06:15;;;;;;;9.90;5.13;;;21.90;99.90;;;;;;5032750;28;20515;-82
2022/06/21 09:09:06;;;;;;;8.47;5.10;;;22.30;99.90;;;;;;5031454;28;20885;-78
2022/06/21 09:11:42;;;;;;;8.33;4.77;;;22.40;99.90;;;;;;5033554;28;20471;-78
2022/06/21 09:14:29;;;;;;;7.43;4.43;;;22.20;99.90;;;;;;5027292;28;20453;-79
2022/06/21 09:17:05;;;;;;;6.63;4.00;;;22.00;99.90;;;;;;5033179;28;20449;-79
2022/06/21 09:19:44;;;;;;;7.93;3.73;;;22.20;99.90;;;;;;5030321;28;20465;-79
2022/06/21 09:22:16;;;;;;;9.87;3.63;;;22.30;99.90;;;;;;5034516;28;20480;-77
2022/06/21 09:24:53;;;;;;;6.97;3.40;;;22.40;99.90;;;;;;5032530;28;20507;-77
2022/06/21 09:27:25;;;;;;;4.30;3.40;;;22.60;99.90;;;;;;5033119;28;20458;-79
2022/06/21 09:30:05;;;;;;;6.67;2.97;;;22.60;99.90;;;;;;5027578;28;21091;-82
2022/06/21 09:32:41;;;;;;;7.50;3.00;;;22.50;99.90;;;;;;5034578;28;20446;-81
2022/06/21 09:35:18;;;;;;;6.13;3.00;;;22.50;99.90;;;;;;5032608;28;20957;-80
2022/06/21 09:37:58;;;;;;;4.37;2.90;;;22.50;99.90;;;;;;5033277;28;20469;-79
2022/06/21 09:40:31;;;;;;;5.93;3.13;;;22.60;99.90;;;;;;5032154;28;21025;-80
2022/06/21 09:43:15;;;;;;;8.67;2.90;;;22.60;99.90;;;;;;5033872;28;20453;-80
2022/06/21 09:45:48;;;;;;;7.70;3.43;;;22.90;99.90;;;;;;5034645;28;20526;-80
2022/06/21 09:48:18;;;;;;;14.53;3.77;;;23.10;99.90;;;;;;5034191;28;20454;-82
2022/06/21 09:50:56;;;;;;;4.60;2.70;;;23.30;99.90;;;;;;5035831;28;20474;-80
2022/06/21 09:53:33;;;;;;;7.37;2.80;;;23.50;99.90;;;;;;5032201;28;20491;-80
2022/06/21 09:56:12;;;;;;;8.70;3.20;;;23.50;99.90;;;;;;5034079;28;20445;-80
2022/06/21 09:58:46;;;;;;;4.63;2.77;;;23.10;99.90;;;;;;5032291;28;20465;-80
2022/06/21 10:01:23;;;;;;;9.30;3.00;;;23.00;99.90;;;;;;5033704;28;20481;-79
2022/06/21 10:03:56;;;;;;;6.70;2.80;;;23.30;99.90;;;;;;5030737;28;20457;-80
2022/06/21 10:06:31;;;;;;;3.33;2.97;;;23.60;99.90;;;;;;5034867;28;20457;-79
2022/06/21 10:09:14;;;;;;;4.53;2.77;;;23.70;99.90;;;;;;5033208;28;20464;-80
2022/06/21 10:11:54;;;;;;;3.93;3.27;;;23.90;99.90;;;;;;5032384;28;20495;-78
2022/06/21 10:14:32;;;;;;;12.50;2.90;;;23.90;99.90;;;;;;5028986;28;20468;-78
2022/06/21 10:17:32;;;;;;;8.07;3.63;;;23.60;99.90;;;;;;5029916;28;20972;-76
2022/06/21 10:20:20;;;;;;;7.70;2.70;;;23.00;99.90;;;;;;5029898;28;20450;-78
2022/06/21 10:22:57;;;;;;;4.43;3.03;;;22.90;99.90;;;;;;5028410;28;20465;-78
2022/06/21 10:25:47;;;;;;;5.47;2.90;;;23.10;99.90;;;;;;5028789;28;20464;-78
2022/06/21 10:28:35;;;;;;;4.10;2.87;;;23.20;99.90;;;;;;5026776;28;20961;-78
2022/06/21 10:31:16;;;;;;;5.73;2.90;;;23.30;99.90;;;;;;5031018;28;20473;-78
2022/06/21 10:34:14;;;;;;;8.97;3.20;;;23.50;99.90;;;;;;5033219;28;21065;-80
2022/06/21 10:37:08;;;;;;;5.50;2.93;;;23.90;99.90;;;;;;5033663;28;20519;-80
2022/06/21 10:40:02;;;;;;;6.63;3.07;;;24.20;99.90;;;;;;5029792;28;20443;-79
2022/06/21 10:42:52;;;;;;;5.90;2.93;;;24.50;99.90;;;;;;5012051;28;20560;-79
2022/06/21 10:45:33;;;;;;;5.90;3.27;;;24.50;99.90;;;;;;5029140;28;20461;-79
2022/06/21 10:48:23;;;;;;;5.47;3.43;;;24.30;99.90;;;;;;5032808;28;20457;-79
2022/06/21 10:50:55;;;;;;;6.07;2.87;;;24.10;99.90;;;;;;5035413;28;20484;-79
2022/06/21 10:53:42;;;;;;;3.83;2.87;;;24.20;99.90;;;;;;5036681;28;21156;-79
2022/06/21 10:59:18;;;;;;;4.30;2.57;;;24.80;99.90;;;;;;5035038;28;20440;-81
2022/06/21 11:01:53;;;;;;;6.37;3.10;;;25.40;99.90;;;;;;5034956;28;20485;-79
2022/06/21 11:04:33;;;;;;;5.60;2.97;;;25.50;99.90;;;;;;5032732;28;20468;-77
2022/06/21 11:07:07;;;;;;;4.27;2.70;;;25.30;99.90;;;;;;5031584;28;20453;-78
2022/06/21 11:09:42;;;;;;;4.30;2.60;;;25.20;99.90;;;;;;5035381;28;20453;-79
2022/06/21 11:15:10;;;;;;;3.50;2.73;;;24.80;99.90;;;;;;5030666;28;20921;-78
2022/06/21 11:17:47;;;;;;;5.23;2.90;;;24.80;99.90;;;;;;5027263;28;20462;-77
2022/06/21 11:20:22;;;;;;;7.83;2.80;;;24.70;99.90;;;;;;5025330;28;20476;-77
2022/06/21 11:22:57;;;;;;;5.90;2.53;;;24.40;99.90;;;;;;5027392;28;20469;-79
2022/06/21 11:25:36;;;;;;;9.10;2.87;;;24.50;99.90;;;;;;5028768;28;20465;-79
2022/06/21 11:28:15;;;;;;;3.53;2.47;;;24.60;99.90;;;;;;5034178;28;20460;-79
2022/06/21 11:30:49;;;;;;;5.40;2.90;;;24.80;99.90;;;;;;5032282;28;20477;-81
2022/06/21 11:33:26;;;;;;;10.40;3.00;;;25.00;99.90;;;;;;5034565;28;20444;-79
2022/06/21 11:35:59;;;;;;;5.90;2.83;;;24.80;99.90;;;;;;5031908;28;20487;-80
2022/06/21 11:38:42;;;;;;;10.90;2.43;;;24.70;99.90;;;;;;5036442;28;20849;-81
2022/06/21 11:42:04;;;;;;;6.03;2.83;;;24.20;99.90;;;;;;5035472;28;20495;-79
2022/06/21 11:44:12;;;;;;;8.13;3.23;;;24.00;99.90;;;;;;5034927;28;20452;-80
2022/06/21 11:46:46;;;;;;;6.73;2.37;;;23.90;99.90;;;;;;5036070;28;20488;-79
2022/06/21 11:49:47;;;;;;;4.93;2.50;;;23.70;99.90;;;;;;5033413;28;20476;-81
2022/06/21 11:52:42;;;;;;;5.57;2.70;;;23.50;99.90;;;;;;5032598;28;20473;-79
2022/06/21 11:55:19;;;;;;;6.07;2.30;;;23.20;99.90;;;;;;5018365;28;20811;-80
2022/06/21 11:57:50;;;;;;;4.00;2.33;;;23.00;99.90;;;;;;5035158;28;20465;-80
2022/06/21 12:00:23;;;;;;;5.00;2.70;;;23.10;99.90;;;;;;5033507;28;20484;-81
2022/06/21 12:02:55;;;;;;;4.47;2.63;;;23.20;99.90;;;;;;5034412;28;20545;-82
2022/06/21 12:05:37;;;;;;;8.43;3.40;;;23.40;99.90;;;;;;5033656;28;20463;-83
2022/06/21 12:08:13;;;;;;;4.87;2.83;;;23.60;99.90;;;;;;5037230;28;20511;-80
2022/06/21 12:10:49;;;;;;;3.10;2.50;;;23.70;99.90;;;;;;5032271;28;20478;-83
2022/06/21 12:13:27;;;;;;;8.13;2.80;;;23.60;99.90;;;;;;5032512;28;20960;-77
2022/06/21 12:16:04;;;;;;;4.63;2.50;;;23.70;99.90;;;;;;5028265;28;20457;-75
2022/06/21 12:18:33;;;;;;;4.80;2.83;;;23.80;99.90;;;;;;5029548;28;20460;-75
2022/06/21 12:21:04;;;;;;;8.53;2.80;;;23.80;99.90;;;;;;5029622;28;20861;-76
2022/06/21 12:23:37;;;;;;;3.30;2.53;;;23.80;99.90;;;;;;5025470;28;20453;-77
2022/06/21 12:26:05;;;;;;;4.10;2.33;;;24.00;99.90;;;;;;5028183;28;20454;-77
2022/06/21 12:28:36;;;;;;;2.20;1.97;;;24.10;99.90;;;;;;5025244;28;22381;-77
2022/06/21 12:31:24;;;;;;;6.73;2.73;;;24.50;99.90;;;;;;5026191;28;20505;-77
2022/06/21 12:33:56;;;;;;;8.10;2.20;;;25.20;99.90;;;;;;5025246;28;20457;-77
2022/06/21 12:36:37;;;;;;;5.67;2.07;;;26.00;99.90;;;;;;5029112;28;20457;-78
2022/06/21 12:39:11;;;;;;;2.90;2.40;;;26.40;99.90;;;;;;5029547;28;20465;-76
2022/06/21 12:41:48;;;;;;;4.07;2.30;;;26.70;99.60;;;;;;5026658;28;20993;-77
2022/06/21 12:44:28;;;;;;;5.13;2.67;;;27.30;99.90;;;;;;5026074;28;20475;-76
2022/06/21 12:47:02;;;;;;;6.40;2.07;;;27.80;99.50;;;;;;5029189;28;20449;-76
2022/06/21 12:50:12;;;;;;;3.47;2.30;;;27.90;97.80;;;;;;5027118;28;20497;-77
2022/06/21 12:52:45;;;;;;;5.40;2.60;;;27.60;96.60;;;;;;5026098;28;20466;-76
2022/06/21 12:55:18;;;;;;;3.70;2.10;;;27.60;98.50;;;;;;5028793;28;21123;-76
2022/06/21 12:58:03;;;;;;;4.20;2.00;;;27.40;96.90;;;;;;5026600;28;20464;-76
2022/06/21 13:00:42;;;;;;;5.43;1.87;;;27.40;96.30;;;;;;5025649;28;20488;-76
2022/06/21 13:03:32;;;;;;;5.90;2.20;;;27.20;96.50;;;;;;5029812;28;20484;-76
2022/06/21 13:06:21;;;;;;;6.17;2.70;;;27.10;96.40;;;;;;5026304;28;20555;-77
2022/06/21 13:09:15;;;;;;;6.83;2.30;;;26.80;96.20;;;;;;5024779;28;20508;-76
2022/06/21 13:12:04;;;;;;;5.50;2.30;;;26.40;96.60;;;;;;5026234;28;20487;-77
2022/06/21 13:14:51;;;;;;;4.10;2.10;;;26.20;97.30;;;;;;5028409;28;20458;-76
2022/06/21 13:17:50;;;;;;;4.47;1.93;;;26.20;97.30;;;;;;5030196;28;21211;-76
2022/06/21 13:20:25;;;;;;;2.27;2.07;;;26.40;97.40;;;;;;5024821;28;20550;-76
2022/06/21 13:23:02;;;;;;;4.40;2.37;;;26.80;96.30;;;;;;5025529;28;20484;-76
2022/06/21 13:25:50;;;;;;;6.40;2.57;;;27.20;97.20;;;;;;5027140;28;20945;-76
2022/06/21 13:28:43;;;;;;;4.30;2.10;;;27.40;95.50;;;;;;5027437;28;20863;-76
2022/06/21 13:31:16;;;;;;;4.93;1.90;;;27.30;95.40;;;;;;5030179;28;20474;-76
2022/06/21 13:33:56;;;;;;;4.70;1.93;;;26.90;95.70;;;;;;5033124;28;20457;-76